Time;durP1;ratioP1;P1;durP2;ratioP2;P2;SDS_P1;SDS_P2;PMS_P1;PMS_P2;Temp;Humidity;BMP_temperature;BMP_pressure;BME280_temperature;BME280_humidity;BME280_pressure;Samples;Min_cycle;Max_cycle;Signal;HPM_P1;HPM_P2
2022/05/21 00:01:22;;;;;;;2.38;1.52;;;18.10;99.90;;;;;;4953607;28;20034;-91
2022/05/21 00:03:47;;;;;;;2.88;1.27;;;18.10;99.90;;;;;;4963527;28;20038;-92
2022/05/21 00:06:13;;;;;;;5.50;1.45;;;18.00;99.90;;;;;;4948592;28;20501;-92
2022/05/21 00:08:39;;;;;;;1.63;1.10;;;18.00;99.90;;;;;;4965301;28;20547;-90
2022/05/21 00:11:05;;;;;;;3.90;1.52;;;18.00;99.60;;;;;;4948548;28;20103;-91
2022/05/21 00:13:31;;;;;;;2.08;1.08;;;17.90;99.80;;;;;;4971420;28;20182;-91
2022/05/21 00:15:56;;;;;;;3.60;1.17;;;17.90;99.70;;;;;;4963905;28;20394;-91
2022/05/21 00:18:22;;;;;;;3.10;1.27;;;17.80;99.80;;;;;;4954552;28;20027;-91
2022/05/21 00:20:47;;;;;;;4.22;1.85;;;17.80;99.90;;;;;;4951687;29;20081;-90
2022/05/21 00:23:30;;;;;;;1.20;1.10;;;17.70;99.90;;;;;;4953649;28;20368;-91
2022/05/21 00:26:15;;;;;;;3.92;1.27;;;17.60;99.90;;;;;;4941565;28;20704;-91
2022/05/21 00:28:44;;;;;;;1.70;1.23;;;17.50;99.90;;;;;;4957678;28;20038;-91
2022/05/21 00:31:11;;;;;;;2.95;1.42;;;17.40;99.90;;;;;;4969351;28;20034;-90
2022/05/21 00:33:38;;;;;;;2.22;1.25;;;17.30;99.90;;;;;;4976833;28;20474;-91
2022/05/21 00:36:04;;;;;;;3.38;1.60;;;17.20;99.90;;;;;;4968703;28;20151;-92
2022/05/21 00:38:30;;;;;;;3.15;1.50;;;17.10;99.90;;;;;;4964566;28;20026;-92
2022/05/21 00:40:56;;;;;;;4.60;1.50;;;17.10;99.90;;;;;;4949627;28;20106;-91
2022/05/21 00:43:34;;;;;;;2.13;1.67;;;17.10;99.90;;;;;;4973518;28;20471;-90
2022/05/21 00:46:00;;;;;;;3.50;2.03;;;17.00;99.90;;;;;;4950394;28;20051;-90
2022/05/21 00:48:26;;;;;;;1.90;1.70;;;17.00;99.90;;;;;;4949156;28;20050;-88
2022/05/21 00:50:52;;;;;;;1.80;1.70;;;17.00;99.90;;;;;;4967546;28;20110;-91
2022/05/21 00:53:19;;;;;;;2.20;1.80;;;16.90;99.90;;;;;;4963873;28;20030;-89
2022/05/21 00:55:46;;;;;;;2.35;1.60;;;16.80;99.40;;;;;;4964416;28;20066;-90
2022/05/21 01:01:01;;;;;;;3.67;2.20;;;16.80;98.20;;;;;;4964342;28;20041;-90
2022/05/21 01:03:29;;;;;;;1.90;1.80;;;16.70;98.40;;;;;;4968727;28;20027;-91
2022/05/21 01:05:55;;;;;;;2.25;1.80;;;16.70;99.00;;;;;;4962458;28;20031;-90
2022/05/21 01:08:21;;;;;;;2.55;1.70;;;16.60;98.50;;;;;;4942198;29;20387;-89
2022/05/21 01:10:50;;;;;;;1.90;1.80;;;16.60;98.90;;;;;;4961132;28;20023;-90
2022/05/21 01:13:20;;;;;;;2.13;1.92;;;16.50;98.90;;;;;;4941689;29;20030;-90
2022/05/21 01:15:51;;;;;;;1.75;1.65;;;16.60;99.10;;;;;;4949917;29;20027;-89
2022/05/21 01:18:17;;;;;;;3.38;1.98;;;16.50;99.40;;;;;;4969613;28;20065;-91
2022/05/21 01:20:47;;;;;;;1.65;1.55;;;16.50;99.60;;;;;;4963464;28;20032;-92
2022/05/21 01:23:13;;;;;;;2.60;1.70;;;16.50;99.90;;;;;;4968853;28;20038;-90
2022/05/21 01:25:40;;;;;;;2.13;1.92;;;16.40;99.90;;;;;;4963336;28;20032;-90
2022/05/21 01:28:09;;;;;;;2.17;1.98;;;16.30;99.10;;;;;;4972263;28;20031;-93
2022/05/21 01:30:42;;;;;;;2.38;2.17;;;16.20;99.70;;;;;;4961503;28;20047;-90
2022/05/21 01:33:11;;;;;;;4.68;2.15;;;16.10;99.30;;;;;;4967718;28;20028;-89
2022/05/21 01:35:37;;;;;;;2.38;1.60;;;16.00;99.40;;;;;;4950389;28;20590;-92
2022/05/21 01:38:04;;;;;;;3.15;2.20;;;15.90;99.60;;;;;;4945602;29;20015;-91
2022/05/21 01:40:30;;;;;;;2.33;1.83;;;15.80;99.20;;;;;;4947475;28;20023;-91
2022/05/21 01:45:40;;;;;;;2.85;2.65;;;15.70;99.70;;;;;;4950553;29;20055;-91
2022/05/21 01:48:06;;;;;;;2.65;2.45;;;15.50;99.90;;;;;;4946833;28;20039;-90
2022/05/21 01:50:35;;;;;;;2.63;2.42;;;15.40;99.90;;;;;;4938422;28;20028;-92
2022/05/21 01:53:00;;;;;;;3.17;2.63;;;15.40;99.90;;;;;;4935193;29;20034;-91
2022/05/21 01:55:26;;;;;;;2.53;2.28;;;15.30;99.90;;;;;;4946306;28;20035;-90
2022/05/21 01:57:52;;;;;;;4.35;2.70;;;15.20;99.90;;;;;;4956139;28;20031;-90
2022/05/21 02:00:19;;;;;;;4.38;2.67;;;15.20;99.90;;;;;;4939141;28;20031;-92
2022/05/21 02:02:45;;;;;;;2.95;2.75;;;15.10;99.90;;;;;;4941704;28;20035;-91
2022/05/21 02:05:11;;;;;;;2.58;2.38;;;15.10;99.90;;;;;;4939132;29;20435;-91
2022/05/21 02:07:37;;;;;;;3.00;2.70;;;15.00;99.90;;;;;;4953527;28;20027;-92
2022/05/21 02:10:04;;;;;;;4.50;2.85;;;15.00;99.90;;;;;;4954610;29;20479;-92
2022/05/21 02:12:30;;;;;;;3.17;2.70;;;14.90;99.90;;;;;;4972753;28;20099;-92
2022/05/21 02:14:56;;;;;;;4.03;2.65;;;14.90;99.90;;;;;;4974717;28;20066;-92
2022/05/21 02:17:22;;;;;;;3.42;2.90;;;14.90;99.90;;;;;;4960494;28;20038;-91
2022/05/21 02:19:48;;;;;;;3.65;2.40;;;14.90;99.90;;;;;;4944791;29;20027;-91
2022/05/21 02:22:14;;;;;;;3.40;2.90;;;14.80;99.90;;;;;;4929312;29;20063;-91
2022/05/21 02:24:40;;;;;;;4.50;3.08;;;14.80;99.90;;;;;;4962930;28;20065;-91
2022/05/21 02:27:09;;;;;;;7.07;3.70;;;14.80;99.90;;;;;;4959738;28;20063;-91
2022/05/21 02:29:35;;;;;;;4.82;3.70;;;14.70;99.90;;;;;;4946553;28;20032;-91
2022/05/21 02:32:01;;;;;;;4.15;3.45;;;14.80;99.90;;;;;;4939749;28;20023;-90
2022/05/21 02:34:26;;;;;;;4.32;4.03;;;14.70;99.90;;;;;;4945507;28;20034;-89
2022/05/21 02:39:36;;;;;;;4.20;3.90;;;14.60;99.90;;;;;;4942668;29;20553;-91
2022/05/21 02:42:03;;;;;;;4.25;3.65;;;14.50;99.90;;;;;;4935656;29;20035;-90
2022/05/21 02:44:29;;;;;;;4.97;4.57;;;14.50;99.90;;;;;;4953904;28;20023;-89
2022/05/21 02:46:55;;;;;;;4.72;4.35;;;14.50;99.90;;;;;;4947006;28;20027;-91
2022/05/21 02:49:22;;;;;;;5.82;3.78;;;14.40;99.90;;;;;;4947845;28;20175;-91
2022/05/21 02:51:48;;;;;;;4.80;4.38;;;14.30;99.90;;;;;;4946558;28;20028;-91
2022/05/21 02:54:14;;;;;;;4.80;4.40;;;14.20;99.90;;;;;;4935543;29;20047;-91
2022/05/21 02:56:51;;;;;;;4.10;3.80;;;14.20;99.90;;;;;;4939966;29;20027;-89
2022/05/21 02:59:17;;;;;;;3.88;3.58;;;14.10;99.90;;;;;;4942518;29;20024;-90
2022/05/21 03:01:43;;;;;;;4.40;4.10;;;14.00;99.90;;;;;;4945751;28;20028;-91
2022/05/21 03:04:09;;;;;;;3.72;3.42;;;14.00;99.90;;;;;;4949277;29;20120;-91
2022/05/21 03:06:36;;;;;;;4.43;4.03;;;14.00;99.90;;;;;;4938341;29;20500;-90
2022/05/21 03:11:47;;;;;;;4.45;4.10;;;14.00;99.90;;;;;;4951911;28;20456;-91
2022/05/21 03:14:12;;;;;;;4.03;3.55;;;13.90;99.90;;;;;;4959318;28;20114;-92
2022/05/21 03:16:38;;;;;;;4.00;3.70;;;13.90;99.90;;;;;;4935111;29;20570;-86
2022/05/21 03:19:03;;;;;;;4.43;3.45;;;13.80;99.90;;;;;;4939123;29;20028;-91
2022/05/21 03:21:29;;;;;;;7.60;4.40;;;13.70;99.90;;;;;;4967413;28;20115;-91
2022/05/21 03:23:55;;;;;;;3.42;3.08;;;13.70;99.90;;;;;;4938146;29;20094;-93
2022/05/21 03:26:21;;;;;;;3.95;3.65;;;13.60;99.90;;;;;;4940058;29;20038;-92
2022/05/21 03:28:47;;;;;;;3.50;3.20;;;13.50;99.90;;;;;;4963857;28;20027;-91
2022/05/21 03:31:12;;;;;;;3.97;3.40;;;13.40;99.90;;;;;;4930536;28;20687;-91
2022/05/21 03:33:38;;;;;;;4.13;3.72;;;13.40;99.90;;;;;;4945953;28;20079;-89
2022/05/21 03:36:04;;;;;;;3.60;3.33;;;13.30;99.90;;;;;;4940502;28;20028;-91
2022/05/21 03:38:30;;;;;;;4.28;3.97;;;13.30;99.90;;;;;;4927420;29;20111;-91
2022/05/21 03:40:56;;;;;;;3.63;3.33;;;13.20;99.90;;;;;;4946141;28;20123;-91
2022/05/21 03:43:22;;;;;;;3.97;3.53;;;13.20;99.90;;;;;;4942474;28;20043;-92
2022/05/21 03:45:49;;;;;;;3.70;3.38;;;13.10;99.90;;;;;;4943277;29;20050;-90
2022/05/21 03:48:15;;;;;;;4.45;3.50;;;13.10;99.90;;;;;;4953257;28;20392;-90
2022/05/21 03:50:41;;;;;;;4.40;4.07;;;13.10;99.90;;;;;;4960633;28;20023;-92
2022/05/21 03:53:09;;;;;;;4.00;3.70;;;13.00;99.90;;;;;;4959050;28;20062;-91
2022/05/21 03:55:35;;;;;;;3.85;3.33;;;13.00;99.90;;;;;;4972960;28;20391;-92
2022/05/21 03:58:01;;;;;;;3.92;3.58;;;13.00;99.90;;;;;;4945965;28;20114;-91
2022/05/21 04:00:27;;;;;;;4.35;3.95;;;13.00;99.90;;;;;;4955966;28;20546;-91
2022/05/21 04:02:53;;;;;;;5.57;3.55;;;13.00;99.90;;;;;;4970833;28;20039;-92
2022/05/21 04:05:19;;;;;;;4.35;4.05;;;13.00;99.90;;;;;;4955724;28;20022;-89
2022/05/21 04:07:45;;;;;;;3.95;3.10;;;13.00;99.90;;;;;;4959335;28;20454;-92
2022/05/21 04:10:16;;;;;;;3.28;2.95;;;13.00;99.90;;;;;;4949028;28;20027;-89
2022/05/21 04:12:42;;;;;;;3.53;3.22;;;13.00;99.90;;;;;;4967173;28;20212;-91
2022/05/21 04:15:09;;;;;;;3.60;3.30;;;13.00;99.90;;;;;;4967152;28;20513;-91
2022/05/21 04:17:35;;;;;;;7.13;3.80;;;13.00;99.90;;;;;;4964250;28;20064;-90
2022/05/21 04:20:02;;;;;;;3.75;3.45;;;13.00;99.90;;;;;;4957801;28;20035;-91
2022/05/21 04:22:27;;;;;;;3.65;3.35;;;13.00;99.90;;;;;;4958029;28;20054;-92
2022/05/21 04:24:53;;;;;;;4.90;3.05;;;13.00;99.90;;;;;;4966066;28;20047;-91
2022/05/21 04:27:19;;;;;;;4.68;3.78;;;13.00;99.90;;;;;;4943561;28;20034;-90
2022/05/21 04:29:45;;;;;;;3.90;3.50;;;13.00;99.90;;;;;;4961822;28;20031;-91
2022/05/21 04:32:10;;;;;;;4.03;3.38;;;13.10;99.90;;;;;;4937849;28;20027;-90
2022/05/21 04:34:36;;;;;;;3.95;3.55;;;13.10;99.90;;;;;;4952247;29;20028;-91
2022/05/21 04:37:02;;;;;;;5.80;3.33;;;13.10;99.90;;;;;;4953767;28;20030;-90
2022/05/21 04:39:27;;;;;;;3.60;3.30;;;13.20;99.90;;;;;;4956402;28;20824;-87
2022/05/21 04:41:53;;;;;;;4.20;3.90;;;13.20;99.90;;;;;;4955209;28;20483;-90
2022/05/21 04:44:18;;;;;;;3.80;3.38;;;13.30;99.90;;;;;;4961849;28;20110;-90
2022/05/21 04:46:44;;;;;;;4.38;3.80;;;13.30;99.90;;;;;;4961441;28;20110;-90
2022/05/21 04:49:10;;;;;;;5.15;3.75;;;13.50;99.90;;;;;;4943124;29;20023;-89
2022/05/21 04:51:37;;;;;;;3.67;3.33;;;13.60;99.90;;;;;;4939044;29;20042;-90
2022/05/21 04:54:04;;;;;;;3.67;3.38;;;13.70;99.90;;;;;;4939872;28;20064;-89
2022/05/21 04:56:31;;;;;;;3.55;3.35;;;14.00;99.90;;;;;;4936508;29;20039;-91
2022/05/21 04:58:57;;;;;;;4.03;3.67;;;14.20;99.90;;;;;;4940180;29;20098;-89
2022/05/21 05:01:24;;;;;;;4.22;3.90;;;14.40;99.90;;;;;;4941723;29;20055;-91
2022/05/21 05:03:49;;;;;;;3.92;3.35;;;14.40;99.90;;;;;;4952243;29;20070;-94
2022/05/21 05:06:15;;;;;;;4.93;3.50;;;14.60;99.90;;;;;;4936292;29;20384;-92
2022/05/21 05:08:43;;;;;;;4.57;3.92;;;14.70;99.90;;;;;;4923323;29;20020;-93
2022/05/21 05:11:09;;;;;;;4.38;3.97;;;14.80;99.90;;;;;;4942938;28;20131;-94
2022/05/21 05:13:35;;;;;;;4.25;3.78;;;15.10;99.90;;;;;;4945337;29;21155;-95
2022/05/21 05:16:00;;;;;;;4.68;3.65;;;15.30;99.90;;;;;;4954888;29;20109;-91
2022/05/21 05:18:30;;;;;;;4.65;3.08;;;15.50;98.30;;;;;;4929343;29;20036;-91
2022/05/21 05:20:57;;;;;;;4.07;3.20;;;15.80;97.70;;;;;;4946007;29;20027;-92
2022/05/21 05:23:22;;;;;;;3.30;3.00;;;16.00;97.20;;;;;;4952382;29;20122;-93
2022/05/21 05:25:48;;;;;;;4.00;2.95;;;16.30;96.50;;;;;;4945400;29;20531;-91
2022/05/21 05:28:22;;;;;;;3.10;2.80;;;16.50;95.20;;;;;;4936625;29;20042;-91
2022/05/21 05:30:48;;;;;;;2.90;2.63;;;16.60;94.90;;;;;;4950361;28;20042;-92
2022/05/21 05:33:15;;;;;;;3.80;3.47;;;16.50;94.60;;;;;;4953996;28;20399;-93
2022/05/21 05:35:41;;;;;;;2.83;2.60;;;16.40;94.80;;;;;;4944638;29;20028;-93
2022/05/21 05:38:09;;;;;;;4.47;2.80;;;16.30;95.50;;;;;;4954911;28;20542;-92
2022/05/21 05:40:35;;;;;;;3.00;2.20;;;16.20;95.60;;;;;;4951713;29;20038;-91
2022/05/21 05:43:01;;;;;;;3.63;2.30;;;16.20;96.10;;;;;;4942460;29;20027;-92
2022/05/21 05:45:27;;;;;;;3.42;2.50;;;16.20;95.70;;;;;;4950205;29;20028;-91
2022/05/21 05:47:53;;;;;;;4.88;2.28;;;16.20;95.40;;;;;;4947795;28;20574;-92
2022/05/21 05:50:19;;;;;;;4.10;2.47;;;16.10;95.50;;;;;;4954403;29;20030;-91
2022/05/21 05:52:45;;;;;;;5.25;2.33;;;16.10;94.60;;;;;;4958380;28;20031;-93
2022/05/21 05:55:10;;;;;;;2.25;2.05;;;16.10;94.60;;;;;;4937818;29;20035;-91
2022/05/21 05:57:36;;;;;;;2.75;2.22;;;16.10;93.70;;;;;;4936532;29;20597;-92
2022/05/21 06:00:04;;;;;;;3.42;1.98;;;16.00;93.50;;;;;;4941444;29;20036;-90
2022/05/21 06:05:17;;;;;;;3.60;1.95;;;16.20;92.90;;;;;;4952937;28;20167;-91
2022/05/21 06:07:49;;;;;;;2.22;1.88;;;16.30;92.70;;;;;;4952415;28;20053;-92
2022/05/21 06:10:21;;;;;;;2.65;2.17;;;16.30;92.50;;;;;;4960154;28;20023;-89
2022/05/21 06:12:47;;;;;;;4.28;2.72;;;16.40;91.60;;;;;;4950530;28;20046;-92
2022/05/21 06:15:13;;;;;;;2.40;2.03;;;16.40;90.90;;;;;;4973506;28;20034;-91
2022/05/21 06:17:39;;;;;;;2.63;2.40;;;16.30;91.70;;;;;;4956747;28;20035;-88
2022/05/21 06:20:07;;;;;;;2.58;1.65;;;16.70;91.50;;;;;;4974044;28;20034;-92
2022/05/21 06:22:33;;;;;;;1.92;1.30;;;18.20;90.60;;;;;;4969264;28;20039;-91
2022/05/21 06:25:00;;;;;;;1.85;1.50;;;20.20;83.40;;;;;;4957306;28;20059;-92
2022/05/21 06:27:25;;;;;;;2.60;1.50;;;22.00;71.80;;;;;;4956745;28;20122;-92
2022/05/21 06:29:51;;;;;;;1.63;1.52;;;22.40;66.40;;;;;;4960270;28;20459;-92
2022/05/21 06:32:16;;;;;;;3.38;1.38;;;22.10;64.20;;;;;;4950299;28;20031;-92
2022/05/21 06:34:45;;;;;;;3.20;1.52;;;22.10;65.30;;;;;;4940837;28;20054;-94
2022/05/21 06:37:13;;;;;;;2.00;1.30;;;21.60;65.20;;;;;;4950688;28;20027;-90
2022/05/21 06:39:40;;;;;;;2.05;1.30;;;21.20;66.60;;;;;;4960658;28;20156;-90
2022/05/21 06:42:06;;;;;;;2.55;1.20;;;21.90;66.50;;;;;;4945129;28;20090;-92
2022/05/21 06:44:32;;;;;;;1.20;1.05;;;22.60;62.90;;;;;;4972786;28;20444;-90
2022/05/21 06:46:59;;;;;;;1.75;1.30;;;22.40;61.90;;;;;;4958702;28;20034;-92
2022/05/21 06:49:28;;;;;;;1.35;1.23;;;22.30;61.30;;;;;;4953990;29;20114;-91
2022/05/21 06:51:55;;;;;;;3.97;1.30;;;22.70;60.50;;;;;;4950684;28;20054;-94
2022/05/21 06:54:22;;;;;;;3.28;1.45;;;22.90;59.30;;;;;;4949697;28;20050;-89
2022/05/21 06:56:48;;;;;;;1.55;1.00;;;22.40;60.90;;;;;;4969191;28;20031;-87
2022/05/21 06:59:14;;;;;;;4.32;1.00;;;23.00;61.30;;;;;;4969009;28;20036;-89
2022/05/21 07:01:40;;;;;;;2.72;1.10;;;23.40;58.00;;;;;;4939799;29;20407;-88
2022/05/21 07:04:06;;;;;;;2.55;1.75;;;23.70;57.70;;;;;;4945683;29;20050;-90
2022/05/21 07:09:16;;;;;;;2.20;1.10;;;22.20;60.00;;;;;;4950210;28;20058;-92
2022/05/21 07:11:42;;;;;;;1.40;1.10;;;21.60;62.90;;;;;;4939751;28;20460;-90
2022/05/21 07:14:08;;;;;;;1.88;1.33;;;21.50;63.60;;;;;;4952348;28;20028;-89
2022/05/21 07:16:33;;;;;;;2.15;1.33;;;21.00;65.60;;;;;;4942900;28;20015;-91
2022/05/21 07:18:59;;;;;;;3.42;1.52;;;20.80;67.20;;;;;;4946207;29;20019;-92
2022/05/21 07:21:25;;;;;;;3.15;1.40;;;21.30;66.10;;;;;;4953221;28;20450;-91
2022/05/21 07:23:50;;;;;;;1.75;1.05;;;22.20;63.20;;;;;;4944622;29;20031;-91
2022/05/21 07:26:17;;;;;;;1.80;1.17;;;22.20;61.50;;;;;;4936157;29;20066;-91
2022/05/21 07:28:43;;;;;;;2.58;1.23;;;22.90;62.50;;;;;;4923883;28;20023;-91
2022/05/21 07:31:10;;;;;;;2.05;1.20;;;24.20;59.00;;;;;;4952045;29;20035;-91
2022/05/21 07:33:35;;;;;;;5.55;0.82;;;25.50;56.30;;;;;;4941742;29;20027;-91
2022/05/21 07:36:02;;;;;;;2.70;0.90;;;26.70;53.70;;;;;;4949553;28;20034;-91
2022/05/21 07:38:27;;;;;;;1.02;0.93;;;26.60;51.80;;;;;;4952269;28;20054;-92
2022/05/21 07:40:53;;;;;;;0.82;0.77;;;25.60;54.10;;;;;;4940924;28;20019;-94
2022/05/21 07:43:22;;;;;;;4.88;0.95;;;25.10;54.80;;;;;;4949774;28;20019;-92
2022/05/21 07:45:49;;;;;;;2.47;1.00;;;24.80;55.90;;;;;;4945917;29;20030;-91
2022/05/21 07:48:18;;;;;;;2.10;1.02;;;24.30;56.50;;;;;;4948090;28;20031;-92
2022/05/21 07:50:49;;;;;;;1.75;0.80;;;23.70;57.50;;;;;;4967016;28;20035;-93
2022/05/21 07:53:21;;;;;;;1.55;1.05;;;23.00;59.30;;;;;;4961105;28;20090;-93
2022/05/21 07:55:49;;;;;;;2.75;0.85;;;22.80;61.20;;;;;;4963430;28;20469;-93
2022/05/21 07:58:15;;;;;;;0.80;0.80;;;23.80;59.70;;;;;;4954430;28;20011;-94
2022/05/21 08:00:41;;;;;;;1.40;0.88;;;24.70;56.50;;;;;;4962375;28;20095;-92
2022/05/21 08:03:10;;;;;;;2.08;1.00;;;24.80;55.70;;;;;;4950555;28;20035;-90
2022/05/21 08:05:37;;;;;;;1.70;1.20;;;24.70;56.30;;;;;;4958621;28;20032;-91
2022/05/21 08:08:03;;;;;;;1.38;1.00;;;24.60;56.50;;;;;;4944392;28;20032;-93
2022/05/21 08:10:29;;;;;;;2.47;1.00;;;24.30;56.80;;;;;;4942408;28;20015;-93
2022/05/21 08:12:54;;;;;;;1.45;1.00;;;24.10;57.90;;;;;;4950547;28;20030;-92
2022/05/21 08:15:21;;;;;;;1.10;1.00;;;24.10;57.90;;;;;;4960347;28;20034;-92
2022/05/21 08:17:47;;;;;;;1.85;1.10;;;24.20;57.80;;;;;;4947911;28;20071;-92
2022/05/21 08:20:15;;;;;;;2.60;1.00;;;24.70;57.90;;;;;;4946986;28;20071;-93
2022/05/21 08:28:13;;;;;;;1.67;0.95;;;26.90;54.60;;;;;;4974168;28;20093;-92
2022/05/21 08:30:40;;;;;;;1.35;0.88;;;28.00;50.60;;;;;;4965948;28;20041;-92
2022/05/21 08:33:07;;;;;;;1.45;0.90;;;27.40;50.00;;;;;;4937731;28;20030;-92
2022/05/21 08:35:33;;;;;;;2.15;1.10;;;26.60;51.30;;;;;;4964638;28;20028;-93
2022/05/21 08:37:59;;;;;;;1.02;0.70;;;26.30;52.50;;;;;;4967506;28;20030;-95
2022/05/21 08:40:51;;;;;;;1.60;0.77;;;26.00;54.40;;;;;;4955040;28;20027;-92
2022/05/21 08:43:50;;;;;;;2.03;0.95;;;26.00;53.20;;;;;;4956655;28;20027;-93
2022/05/21 08:46:49;;;;;;;1.48;0.82;;;26.80;51.50;;;;;;4972821;28;20065;-94
2022/05/21 08:49:29;;;;;;;2.38;0.80;;;27.90;50.40;;;;;;4957822;28;20014;-92
2022/05/21 08:52:25;;;;;;;3.15;0.93;;;28.00;48.70;;;;;;4958205;28;20027;-91
2022/05/21 08:54:54;;;;;;;2.47;1.08;;;26.80;49.80;;;;;;4957359;28;20431;-94
2022/05/21 08:57:25;;;;;;;1.83;0.80;;;26.00;51.50;;;;;;4945452;28;20027;-92
2022/05/21 09:00:06;;;;;;;1.75;0.80;;;25.50;53.10;;;;;;4949939;28;20506;-89
2022/05/21 09:02:33;;;;;;;;;;;26.30;54.40;;;;;;4944679;29;20046;-94
2022/05/21 09:04:59;;;;;;;2.30;0.65;;;27.80;50.90;;;;;;4947848;29;19906;-93
2022/05/21 09:07:30;;;;;;;2.08;0.50;;;29.40;47.40;;;;;;4954623;28;20019;-94
2022/05/21 09:10:07;;;;;;;1.23;0.93;;;30.30;46.30;;;;;;4947192;29;20507;-92
2022/05/21 09:12:55;;;;;;;1.45;0.90;;;30.00;44.70;;;;;;4943582;28;20039;-93
2022/05/21 09:18:10;;;;;;;2.67;0.90;;;28.30;48.50;;;;;;4946965;28;20078;-90
2022/05/21 09:20:57;;;;;;;2.00;0.68;;;27.30;48.40;;;;;;4965879;28;20057;-90
2022/05/21 09:23:22;;;;;;;1.52;0.80;;;26.70;51.30;;;;;;4947245;28;20039;-92
2022/05/21 09:26:05;;;;;;;1.83;0.80;;;26.20;50.30;;;;;;4940078;29;20126;-92
2022/05/21 09:28:31;;;;;;;0.73;0.57;;;25.80;52.20;;;;;;4971171;28;20096;-92
2022/05/21 09:30:58;;;;;;;0.82;0.70;;;25.70;53.40;;;;;;4946348;29;20027;-92
2022/05/21 09:33:42;;;;;;;2.17;0.82;;;25.70;53.10;;;;;;4953343;29;20411;-93
2022/05/21 09:36:13;;;;;;;0.98;0.60;;;25.60;52.80;;;;;;4939521;28;20052;-91
2022/05/21 09:38:53;;;;;;;2.58;0.70;;;25.50;55.10;;;;;;4936151;29;20031;-93
2022/05/21 09:41:19;;;;;;;1.60;0.60;;;26.00;53.60;;;;;;4944926;28;20035;-92
2022/05/21 09:46:39;;;;;;;1.20;0.50;;;27.90;49.40;;;;;;4947157;28;20550;-93
2022/05/21 09:49:29;;;;;;;2.40;0.60;;;28.60;48.00;;;;;;4943967;29;20027;-93
2022/05/21 09:52:06;;;;;;;3.30;0.65;;;29.00;48.20;;;;;;4950009;28;20031;-92
2022/05/21 09:54:43;;;;;;;3.08;0.60;;;30.20;46.30;;;;;;4950641;28;20407;-92
2022/05/21 09:57:31;;;;;;;1.40;0.65;;;31.90;43.70;;;;;;4948951;29;20047;-92
2022/05/21 10:00:36;;;;;;;1.00;0.80;;;33.00;42.10;;;;;;4952135;28;20082;-94
2022/05/21 10:03:05;;;;;;;2.08;0.70;;;33.20;40.60;;;;;;4923577;29;20058;-94
2022/05/21 10:05:40;;;;;;;0.85;0.50;;;33.40;40.70;;;;;;4960051;28;20051;-93
2022/05/21 10:11:13;;;;;;;1.83;0.52;;;32.50;40.60;;;;;;4955406;28;20118;-91
2022/05/21 10:13:45;;;;;;;2.28;0.85;;;31.90;41.10;;;;;;4950603;28;20027;-92
2022/05/21 10:16:40;;;;;;;2.33;0.60;;;31.50;41.70;;;;;;4964545;28;20019;-93
2022/05/21 10:19:16;;;;;;;1.23;0.70;;;29.80;43.20;;;;;;4928696;29;20117;-92
2022/05/21 10:22:00;;;;;;;1.27;0.60;;;29.00;44.60;;;;;;4946248;28;20035;-93
2022/05/21 10:24:38;;;;;;;1.65;0.60;;;28.40;46.30;;;;;;4962962;28;20061;-90
2022/05/21 10:27:41;;;;;;;0.82;0.60;;;27.20;47.00;;;;;;4955212;28;20023;-93
2022/05/21 10:30:27;;;;;;;1.05;0.73;;;26.70;48.70;;;;;;4940989;29;20104;-92
2022/05/21 10:33:23;;;;;;;1.23;0.80;;;26.20;50.10;;;;;;4949603;29;20063;-90
2022/05/21 10:36:15;;;;;;;2.55;0.80;;;25.90;50.20;;;;;;4942163;29;20042;-91
2022/05/21 10:38:50;;;;;;;3.03;1.08;;;25.40;50.90;;;;;;4942827;29;20031;-92
2022/05/21 10:41:19;;;;;;;1.38;0.80;;;24.70;51.80;;;;;;4943789;28;20031;-89
2022/05/21 10:44:11;;;;;;;2.08;1.08;;;24.40;52.60;;;;;;4945390;29;20024;-93
2022/05/21 10:47:09;;;;;;;1.27;0.70;;;24.60;52.80;;;;;;4940645;29;20031;-93
2022/05/21 10:50:02;;;;;;;2.55;0.70;;;24.90;51.80;;;;;;4948644;29;20530;-92
2022/05/21 10:52:45;;;;;;;1.65;1.25;;;24.60;52.80;;;;;;4946836;29;20024;-91
2022/05/21 10:55:46;;;;;;;3.42;0.90;;;24.40;53.70;;;;;;4938128;29;20082;-92
2022/05/21 10:58:32;;;;;;;1.88;0.80;;;24.30;54.10;;;;;;4936216;29;20054;-92
2022/05/21 11:01:09;;;;;;;1.30;0.70;;;24.50;52.70;;;;;;4958834;28;20119;-93
2022/05/21 11:03:41;;;;;;;2.00;0.85;;;24.40;52.70;;;;;;4943048;28;20035;-92
2022/05/21 11:06:45;;;;;;;1.77;0.80;;;24.50;53.30;;;;;;4947315;28;20056;-88
2022/05/21 11:09:29;;;;;;;2.25;0.70;;;24.30;53.50;;;;;;4941365;28;20176;-91
2022/05/21 11:12:11;;;;;;;1.65;0.80;;;24.20;54.30;;;;;;4950342;28;20028;-90
2022/05/21 11:14:49;;;;;;;1.13;0.60;;;24.60;53.20;;;;;;4937644;29;20043;-89
2022/05/21 11:17:52;;;;;;;2.38;0.60;;;25.00;52.80;;;;;;4954596;28;20023;-92
2022/05/21 11:20:26;;;;;;;2.75;0.70;;;25.40;50.00;;;;;;4949446;28;20019;-90
2022/05/21 11:23:03;;;;;;;3.85;0.85;;;25.20;51.00;;;;;;4940421;28;20040;-91
2022/05/21 11:25:45;;;;;;;5.40;0.60;;;24.80;51.60;;;;;;4939371;28;20443;-90
2022/05/21 11:28:29;;;;;;;2.10;0.80;;;24.60;52.00;;;;;;4939318;29;20024;-91
2022/05/21 11:31:04;;;;;;;2.83;0.90;;;24.10;52.80;;;;;;4937075;29;20044;-94
2022/05/21 11:39:06;;;;;;;1.10;0.40;;;25.20;50.60;;;;;;4944095;29;20054;-92
2022/05/21 11:42:07;;;;;;;2.00;0.60;;;25.90;50.10;;;;;;4942972;28;20038;-93
2022/05/21 11:44:55;;;;;;;1.45;0.50;;;26.40;49.20;;;;;;4904801;29;20040;-92
2022/05/21 11:47:21;;;;;;;1.17;0.80;;;26.80;47.20;;;;;;4938886;28;20036;-92
2022/05/21 11:50:01;;;;;;;1.30;0.60;;;26.80;47.40;;;;;;4942968;29;20058;-94
2022/05/21 11:52:27;;;;;;;1.10;0.60;;;26.60;48.30;;;;;;4949481;28;20015;-91
2022/05/21 11:55:09;;;;;;;2.15;0.50;;;26.50;49.60;;;;;;4948227;28;20036;-94
2022/05/21 11:57:55;;;;;;;1.10;0.60;;;26.00;49.00;;;;;;4952459;29;20039;-92
2022/05/21 12:00:20;;;;;;;2.83;0.50;;;25.70;49.90;;;;;;4939377;29;20028;-92
2022/05/21 12:02:56;;;;;;;1.70;0.70;;;25.60;50.60;;;;;;4948920;28;20561;-93
2022/05/21 12:05:49;;;;;;;2.58;0.50;;;25.10;50.60;;;;;;4953620;28;20039;-92
2022/05/21 12:08:20;;;;;;;1.73;0.70;;;25.00;52.40;;;;;;4946424;28;20027;-93
2022/05/21 12:11:02;;;;;;;2.65;0.68;;;25.40;51.60;;;;;;4954853;28;20027;-92
2022/05/21 12:13:40;;;;;;;3.47;0.73;;;25.60;50.10;;;;;;4949059;28;20058;-93
2022/05/21 12:16:20;;;;;;;1.15;0.45;;;25.40;50.50;;;;;;4950616;28;20022;-93
2022/05/21 12:18:54;;;;;;;1.05;0.60;;;24.90;50.90;;;;;;4960198;28;20039;-93
2022/05/21 12:21:43;;;;;;;3.05;0.57;;;24.70;52.00;;;;;;4959768;28;20031;-93
2022/05/21 12:24:35;;;;;;;0.80;0.70;;;24.60;51.40;;;;;;4935442;28;20031;-93
2022/05/21 12:27:21;;;;;;;1.40;0.77;;;24.30;53.30;;;;;;4937742;29;20080;-91
2022/05/21 12:29:48;;;;;;;1.77;0.68;;;24.20;53.20;;;;;;4960912;28;20037;-92
2022/05/21 12:32:26;;;;;;;4.38;0.90;;;24.50;53.00;;;;;;4949665;28;20020;-92
2022/05/21 12:35:20;;;;;;;2.60;0.68;;;25.00;51.50;;;;;;4958024;28;20023;-92
2022/05/21 12:37:56;;;;;;;2.35;0.80;;;25.30;50.60;;;;;;4974099;28;20030;-91
2022/05/21 12:40:49;;;;;;;1.33;0.73;;;25.10;50.80;;;;;;4966659;28;20026;-94
2022/05/21 12:43:15;;;;;;;3.22;0.80;;;24.60;51.10;;;;;;4973944;28;20147;-94
2022/05/21 12:45:44;;;;;;;2.53;0.60;;;24.20;51.20;;;;;;4956279;29;20031;-92
2022/05/21 12:48:22;;;;;;;2.40;0.60;;;24.20;51.80;;;;;;4956609;28;20027;-93
2022/05/21 12:50:50;;;;;;;2.10;0.50;;;24.00;50.70;;;;;;4952254;28;20036;-93
2022/05/21 12:53:32;;;;;;;2.00;0.65;;;23.60;51.10;;;;;;4956226;28;20074;-91
2022/05/21 12:56:15;;;;;;;4.85;0.80;;;23.40;53.30;;;;;;4950943;28;20091;-90
2022/05/21 12:58:40;;;;;;;2.60;1.00;;;23.70;53.20;;;;;;4941990;29;20032;-93
2022/05/21 13:01:07;;;;;;;1.80;0.63;;;23.90;52.50;;;;;;4950542;29;20089;-94
2022/05/21 13:03:35;;;;;;;3.63;0.80;;;23.70;52.00;;;;;;4951982;28;20492;-91
2022/05/21 13:06:10;;;;;;;1.95;0.60;;;23.50;53.00;;;;;;4939998;29;20040;-92
2022/05/21 13:08:40;;;;;;;1.38;0.50;;;23.30;53.00;;;;;;4966649;28;20034;-93
2022/05/21 13:11:20;;;;;;;2.20;0.70;;;22.80;52.90;;;;;;4955464;28;20024;-93
2022/05/21 13:14:08;;;;;;;2.33;0.65;;;22.50;56.00;;;;;;4957075;28;20086;-93
2022/05/21 13:16:35;;;;;;;1.73;0.60;;;22.50;56.40;;;;;;4951107;29;20024;-94
2022/05/21 13:19:17;;;;;;;5.15;0.70;;;22.50;58.00;;;;;;4956912;29;20023;-93
2022/05/21 13:21:57;;;;;;;2.55;0.60;;;22.60;56.50;;;;;;4965439;28;20038;-93
2022/05/21 13:24:45;;;;;;;1.20;0.77;;;22.90;56.90;;;;;;4958035;29;20059;-94
2022/05/21 13:27:12;;;;;;;1.65;0.65;;;23.30;54.80;;;;;;4957520;28;20171;-94
2022/05/21 13:29:40;;;;;;;1.13;0.60;;;23.60;55.00;;;;;;4952181;29;20035;-93
2022/05/21 13:32:22;;;;;;;1.38;0.60;;;23.80;53.60;;;;;;4944122;28;20396;-92
2022/05/21 13:34:48;;;;;;;3.55;0.70;;;23.90;53.70;;;;;;4947881;28;20027;-93
2022/05/21 13:37:14;;;;;;;2.17;0.82;;;24.00;53.30;;;;;;4946680;29;20030;-91
2022/05/21 13:39:55;;;;;;;2.42;0.80;;;23.90;53.00;;;;;;4943110;28;20144;-90
2022/05/21 13:42:22;;;;;;;2.05;0.65;;;23.60;53.10;;;;;;4946930;28;20026;-93
2022/05/21 13:44:49;;;;;;;2.55;0.80;;;23.60;53.70;;;;;;4960365;28;20031;-91